createdAt,value
2022-10-14T00:01:24.755Z,24.60
2022-10-14T00:03:52.954Z,23.95
2022-10-14T00:06:24.421Z,23.05
2022-10-14T00:08:51.786Z,24.23
2022-10-14T00:11:25.116Z,22.80
2022-10-14T00:13:59.602Z,24.55
2022-10-14T00:16:37.085Z,24.48
2022-10-14T00:19:08.039Z,24.02
2022-10-14T00:21:39.280Z,24.58
2022-10-14T00:24:14.520Z,26.02
2022-10-14T00:26:41.864Z,22.75
2022-10-14T00:29:18.715Z,23.30
2022-10-14T00:31:49.265Z,22.30
2022-10-14T00:34:19.241Z,19.65
2022-10-14T00:36:49.552Z,18.65
2022-10-14T00:39:19.402Z,19.33
2022-10-14T00:41:47.371Z,17.77
2022-10-14T00:44:14.560Z,19.05
2022-10-14T00:46:48.023Z,17.42
2022-10-14T00:49:24.818Z,17.15
2022-10-14T00:52:05.805Z,18.55
2022-10-14T00:54:41.152Z,20.02
2022-10-14T00:57:09.570Z,21.10
2022-10-14T00:59:37.226Z,21.98
2022-10-14T01:02:04.714Z,20.17
2022-10-14T01:04:40.829Z,22.55
2022-10-14T01:07:20.312Z,21.10
2022-10-14T01:10:31.252Z,21.95
2022-10-14T01:13:33.036Z,21.83
2022-10-14T01:16:25.948Z,22.33
2022-10-14T01:19:37.182Z,21.00
2022-10-14T01:22:25.447Z,21.80
2022-10-14T01:25:18.089Z,22.63
2022-10-14T01:28:18.644Z,21.73
2022-10-14T01:30:55.597Z,19.88
2022-10-14T01:33:29.071Z,22.00
2022-10-14T01:36:02.474Z,21.38
2022-10-14T01:38:44.944Z,20.35
2022-10-14T01:41:23.946Z,21.40
2022-10-14T01:43:54.585Z,19.92
2022-10-14T01:46:26.017Z,21.10
2022-10-14T01:49:03.223Z,19.40
2022-10-14T01:51:49.343Z,19.45
2022-10-14T01:54:25.142Z,20.02
2022-10-14T01:56:55.737Z,20.88
2022-10-14T01:59:24.833Z,19.67
2022-10-14T02:01:52.029Z,18.67
2022-10-14T02:04:22.123Z,19.15
2022-10-14T02:07:07.964Z,19.90
2022-10-14T02:13:12.147Z,16.73
2022-10-14T02:15:50.465Z,19.70
2022-10-14T02:18:45.820Z,17.85
2022-10-14T02:21:33.995Z,21.35
2022-10-14T02:24:25.058Z,21.10
2022-10-14T02:26:58.684Z,21.40
2022-10-14T02:29:30.819Z,21.85
2022-10-14T02:31:59.325Z,21.27
2022-10-14T02:34:27.408Z,20.60
2022-10-14T02:36:58.762Z,19.20
2022-10-14T02:39:34.800Z,20.92
2022-10-14T02:42:02.229Z,19.95
2022-10-14T02:44:32.896Z,18.23
2022-10-14T02:47:03.390Z,19.25
2022-10-14T02:49:33.946Z,20.63
2022-10-14T02:52:01.040Z,20.92
2022-10-14T02:54:28.172Z,20.60
2022-10-14T02:56:55.292Z,20.48
2022-10-14T02:59:22.607Z,19.30
2022-10-14T03:01:50.007Z,19.05
2022-10-14T03:04:17.086Z,19.70
2022-10-14T03:06:46.972Z,20.60
2022-10-14T03:09:14.169Z,21.08
2022-10-14T03:11:44.758Z,19.50
2022-10-14T03:14:12.306Z,19.77
2022-10-14T03:16:42.541Z,21.20
2022-10-14T03:19:13.331Z,20.05
2022-10-14T03:21:40.438Z,21.00
2022-10-14T03:24:09.347Z,19.58
2022-10-14T03:26:36.508Z,20.27
2022-10-14T03:29:03.724Z,19.50
2022-10-14T03:31:30.863Z,19.30
2022-10-14T03:33:58.009Z,20.33
2022-10-14T03:36:28.582Z,22.83
2022-10-14T03:38:55.795Z,21.40
2022-10-14T03:41:22.877Z,21.67
2022-10-14T03:43:50.164Z,20.95
2022-10-14T03:46:20.521Z,21.13
2022-10-14T03:48:47.882Z,22.13
2022-10-14T03:51:17.901Z,21.92
2022-10-14T03:53:45.073Z,21.67
2022-10-14T03:56:12.551Z,21.27
2022-10-14T03:58:40.059Z,21.15
2022-10-14T04:01:10.736Z,21.80
2022-10-14T04:03:46.643Z,20.98
2022-10-14T04:06:14.616Z,21.08
2022-10-14T04:08:41.910Z,21.45
2022-10-14T04:11:09.477Z,22.05
2022-10-14T04:13:37.079Z,22.52
2022-10-14T04:16:10.234Z,21.77
2022-10-14T04:18:38.265Z,21.73
2022-10-14T04:21:09.409Z,21.88
2022-10-14T04:23:36.883Z,21.38
2022-10-14T04:26:09.559Z,20.13
2022-10-14T04:28:37.390Z,20.67
2022-10-14T04:31:07.279Z,22.33
2022-10-14T04:33:35.168Z,22.23
2022-10-14T04:36:05.616Z,22.65
2022-10-14T04:38:36.089Z,20.63
2022-10-14T04:41:06.622Z,22.25
2022-10-14T04:43:33.760Z,21.67
2022-10-14T04:46:01.053Z,20.63
2022-10-14T04:48:28.605Z,22.77
2022-10-14T04:50:55.670Z,21.80
2022-10-14T04:53:23.012Z,21.17
2022-10-14T04:55:51.789Z,21.65
2022-10-14T04:58:18.998Z,23.50
2022-10-14T05:00:49.627Z,24.27
2022-10-14T05:03:16.755Z,24.40
2022-10-14T05:05:44.020Z,22.10
2022-10-14T05:08:11.188Z,24.42
2022-10-14T05:10:39.033Z,21.65
2022-10-14T05:13:09.482Z,22.25
2022-10-14T05:15:40.140Z,23.25
2022-10-14T05:18:07.385Z,22.08
2022-10-14T05:20:34.966Z,24.27
2022-10-14T05:23:06.150Z,23.27
2022-10-14T05:25:33.273Z,22.80
2022-10-14T05:28:00.406Z,25.30
2022-10-14T05:30:32.218Z,23.98
2022-10-14T05:33:01.755Z,24.08
2022-10-14T05:35:53.640Z,22.77
2022-10-14T05:38:15.904Z,23.40
2022-10-14T05:40:43.738Z,23.38
2022-10-14T05:43:11.423Z,23.30
2022-10-14T05:45:38.847Z,25.00
2022-10-14T05:48:06.454Z,23.58
2022-10-14T05:50:33.807Z,22.67
2022-10-14T05:53:04.614Z,23.20
2022-10-14T05:55:31.689Z,23.30
2022-10-14T05:57:59.013Z,23.38
2022-10-14T06:00:26.700Z,23.38
2022-10-14T06:02:54.309Z,25.45
2022-10-14T06:05:21.571Z,26.50
2022-10-14T06:07:48.684Z,24.67
2022-10-14T06:10:19.034Z,27.33
2022-10-14T06:12:46.180Z,27.35
2022-10-14T06:15:16.547Z,25.05
2022-10-14T06:17:46.420Z,27.40
2022-10-14T06:20:13.525Z,26.85
2022-10-14T06:22:40.726Z,28.75
2022-10-14T06:25:08.625Z,28.95
2022-10-14T06:27:35.705Z,27.50
2022-10-14T06:30:03.608Z,27.73
2022-10-14T06:32:33.812Z,29.55
2022-10-14T06:35:01.169Z,31.33
2022-10-14T06:37:29.504Z,30.85
2022-10-14T06:39:57.051Z,30.48
2022-10-14T06:42:28.191Z,28.92
2022-10-14T06:44:56.055Z,29.40
2022-10-14T06:47:23.165Z,30.83
2022-10-14T06:49:50.359Z,29.20
2022-10-14T06:52:17.967Z,29.85
2022-10-14T06:54:48.254Z,26.70
2022-10-14T06:57:16.238Z,28.33
2022-10-14T06:59:46.835Z,26.77
2022-10-14T07:02:14.320Z,27.05
2022-10-14T07:04:41.705Z,25.20
2022-10-14T07:07:09.219Z,26.15
2022-10-14T07:09:39.696Z,29.38
2022-10-14T07:12:07.179Z,26.52
2022-10-14T07:14:34.267Z,28.45
2022-10-14T07:17:01.677Z,27.48
2022-10-14T07:19:28.738Z,26.48
2022-10-14T07:22:02.302Z,29.50
2022-10-14T07:24:29.887Z,30.92
2022-10-14T07:26:57.395Z,30.92
2022-10-14T07:29:24.550Z,30.85
2022-10-14T07:31:57.948Z,30.95
2022-10-14T07:34:25.554Z,29.65
2022-10-14T07:36:56.275Z,29.73
2022-10-14T07:39:27.634Z,29.60
2022-10-14T07:41:57.989Z,28.83
2022-10-14T07:44:28.949Z,27.83
2022-10-14T07:46:56.220Z,28.38
2022-10-14T07:49:23.553Z,27.38
2022-10-14T07:51:50.755Z,27.65
2022-10-14T07:54:22.414Z,30.90
2022-10-14T07:56:50.076Z,29.08
2022-10-14T07:59:21.673Z,29.23
2022-10-14T08:01:53.658Z,27.17
2022-10-14T08:04:21.292Z,31.27
2022-10-14T08:06:49.169Z,29.77
2022-10-14T08:09:18.358Z,32.03
2022-10-14T08:11:46.441Z,27.85
2022-10-14T08:14:14.500Z,30.42
2022-10-14T08:16:45.259Z,29.10
2022-10-14T08:19:14.524Z,29.38
2022-10-14T08:21:43.489Z,31.05
2022-10-14T08:24:11.324Z,29.83
2022-10-14T08:26:48.918Z,28.10
2022-10-14T08:29:16.367Z,30.77
2022-10-14T08:31:43.433Z,29.73
2022-10-14T08:34:11.261Z,30.50
2022-10-14T08:36:38.786Z,30.17
2022-10-14T08:39:12.209Z,30.50
2022-10-14T08:42:04.997Z,29.92
2022-10-14T08:44:41.289Z,28.17
2022-10-14T08:47:15.731Z,29.92
2022-10-14T08:50:07.334Z,30.00
2022-10-14T08:52:53.240Z,29.73
2022-10-14T08:55:46.924Z,30.88
2022-10-14T08:58:20.087Z,30.83
2022-10-14T09:00:52.004Z,31.17
2022-10-14T09:03:33.400Z,31.42
2022-10-14T09:06:18.989Z,31.95
2022-10-14T09:08:50.445Z,32.20
2022-10-14T09:11:24.195Z,32.17
2022-10-14T09:13:57.258Z,31.88
2022-10-14T09:16:36.146Z,33.63
2022-10-14T09:19:12.102Z,34.88
2022-10-14T09:24:35.932Z,35.00
2022-10-14T09:27:22.090Z,35.60
2022-10-14T09:30:02.117Z,34.38
2022-10-14T09:32:44.507Z,34.78
2022-10-14T09:35:28.995Z,34.92
2022-10-14T09:37:56.814Z,34.15
2022-10-14T09:40:47.696Z,33.75
2022-10-14T09:43:21.376Z,34.97
2022-10-14T09:46:08.701Z,33.47
2022-10-14T09:49:04.942Z,33.20
2022-10-14T09:51:34.624Z,33.08
2022-10-14T09:54:04.977Z,34.45
2022-10-14T09:56:41.679Z,36.22
2022-10-14T09:59:22.516Z,34.75
2022-10-14T10:01:56.346Z,36.65
2022-10-14T10:04:47.865Z,36.38
2022-10-14T10:07:34.414Z,34.17
2022-10-14T10:10:18.585Z,35.83
2022-10-14T10:12:47.244Z,36.95
2022-10-14T10:15:21.377Z,35.25
2022-10-14T10:17:49.781Z,35.40
2022-10-14T10:20:28.363Z,36.75
2022-10-14T10:23:17.980Z,36.38
2022-10-14T10:28:31.071Z,30.95
2022-10-14T10:33:57.004Z,29.65
2022-10-14T10:36:42.879Z,30.67
2022-10-14T10:39:43.952Z,30.33
2022-10-14T10:42:25.848Z,29.60
2022-10-14T10:45:36.330Z,30.52
2022-10-14T10:48:21.220Z,33.35
2022-10-14T10:51:00.713Z,34.17
2022-10-14T10:54:00.603Z,32.85
2022-10-14T10:59:37.607Z,33.25
2022-10-14T11:02:23.452Z,31.30
2022-10-14T11:08:02.488Z,28.02
2022-10-14T11:11:43.636Z,28.42
2022-10-14T11:14:42.100Z,26.33
2022-10-14T11:17:52.853Z,26.55
2022-10-14T11:20:31.156Z,25.90
2022-10-14T11:23:17.020Z,26.40
2022-10-14T11:26:27.262Z,25.55
2022-10-14T11:29:51.546Z,27.27
2022-10-14T11:33:09.062Z,27.10
2022-10-14T11:36:17.347Z,26.15
2022-10-14T11:38:59.788Z,26.90
2022-10-14T11:42:14.103Z,19.35
2022-10-14T11:44:45.116Z,19.00
2022-10-14T11:47:31.962Z,15.55
2022-10-14T11:50:38.017Z,13.65
2022-10-14T11:53:34.395Z,11.75
2022-10-14T11:56:14.884Z,14.57
2022-10-14T11:58:45.114Z,14.05
2022-10-14T12:01:15.012Z,14.35
2022-10-14T12:04:14.813Z,12.27
2022-10-14T12:06:48.922Z,12.95
2022-10-14T12:12:20.015Z,14.13
2022-10-14T12:14:55.314Z,13.90
2022-10-14T12:17:39.237Z,13.43
2022-10-14T12:20:53.117Z,13.07
2022-10-14T12:23:43.566Z,13.85
2022-10-14T12:26:20.122Z,14.85
2022-10-14T12:28:53.904Z,15.23
2022-10-14T12:31:36.862Z,16.15
2022-10-14T12:34:15.854Z,16.55
2022-10-14T12:36:46.757Z,15.15
2022-10-14T12:39:17.296Z,16.27
2022-10-14T12:42:14.666Z,14.63
2022-10-14T12:44:56.218Z,14.70
2022-10-14T12:47:34.927Z,14.55
2022-10-14T12:50:15.218Z,15.25
2022-10-14T12:52:55.298Z,14.57
2022-10-14T12:55:27.268Z,16.15
2022-10-14T12:58:02.135Z,15.07
2022-10-14T13:00:40.667Z,14.35
2022-10-14T13:03:23.733Z,12.98
2022-10-14T13:05:51.031Z,11.50
2022-10-14T13:08:21.046Z,12.13
2022-10-14T13:10:55.003Z,10.70
2022-10-14T13:13:44.880Z,10.52
2022-10-14T13:16:21.234Z,10.30
2022-10-14T13:18:58.413Z,10.55
2022-10-14T13:21:34.580Z,10.15
2022-10-14T13:24:26.216Z,10.13
2022-10-14T13:26:53.846Z,10.32
2022-10-14T13:29:20.773Z,9.82
2022-10-14T13:32:18.673Z,9.00
2022-10-14T13:35:03.096Z,8.10
2022-10-14T13:37:45.747Z,8.52
2022-10-14T13:40:36.370Z,7.63
2022-10-14T13:43:42.409Z,8.60
2022-10-14T13:46:44.184Z,7.78
2022-10-14T13:49:46.603Z,9.15
2022-10-14T13:52:26.014Z,9.45
2022-10-14T13:55:20.165Z,12.43
2022-10-14T13:58:17.587Z,14.15
2022-10-14T14:01:00.047Z,16.08
2022-10-14T14:03:41.712Z,15.02
2022-10-14T14:06:17.634Z,15.13
2022-10-14T14:11:33.518Z,16.02
2022-10-14T14:14:20.697Z,15.30
2022-10-14T14:16:59.114Z,15.65
2022-10-14T14:19:36.146Z,17.20
2022-10-14T14:22:24.697Z,14.30
2022-10-14T14:24:52.286Z,13.18
2022-10-14T14:27:26.657Z,12.75
2022-10-14T14:29:55.205Z,12.80
2022-10-14T14:32:31.514Z,11.52
2022-10-14T14:35:12.673Z,13.02
2022-10-14T14:37:55.001Z,12.40
2022-10-14T14:40:30.126Z,12.23
2022-10-14T14:43:03.932Z,11.98
2022-10-14T14:45:44.796Z,13.73
2022-10-14T14:48:15.465Z,13.32
2022-10-14T14:50:45.287Z,14.73
2022-10-14T14:53:16.977Z,16.60
2022-10-14T14:55:48.370Z,16.08
2022-10-14T14:58:37.197Z,16.30
2022-10-14T15:01:24.913Z,15.40
2022-10-14T15:04:13.137Z,16.55
2022-10-14T15:07:02.045Z,14.80
2022-10-14T15:09:59.438Z,15.02
2022-10-14T15:12:41.866Z,15.02
2022-10-14T15:15:32.581Z,14.15
2022-10-14T15:18:05.472Z,14.55
2022-10-14T15:20:37.141Z,13.07
2022-10-14T15:23:41.270Z,16.45
2022-10-14T15:26:34.884Z,14.23
2022-10-14T15:29:08.391Z,13.95
2022-10-14T15:31:37.468Z,15.40
2022-10-14T15:34:06.318Z,14.20
2022-10-14T15:36:34.755Z,13.80
2022-10-14T15:39:03.378Z,14.40
2022-10-14T15:41:30.527Z,14.00
2022-10-14T15:43:57.670Z,14.73
2022-10-14T15:46:47.156Z,14.55
2022-10-14T15:49:28.311Z,15.07
2022-10-14T15:51:55.570Z,14.30
2022-10-14T15:54:27.147Z,14.25
2022-10-14T15:56:57.822Z,13.57
2022-10-14T15:59:25.659Z,13.95
2022-10-14T16:01:53.264Z,14.23
2022-10-14T16:04:27.822Z,12.52
2022-10-14T16:06:57.127Z,12.88
2022-10-14T16:09:27.775Z,13.95
2022-10-14T16:11:58.186Z,12.77
2022-10-14T16:14:28.283Z,12.27
2022-10-14T16:16:55.833Z,19.55
2022-10-14T16:19:26.416Z,16.58
2022-10-14T16:21:57.190Z,14.18
2022-10-14T16:24:27.258Z,14.13
2022-10-14T16:26:54.809Z,16.10
2022-10-14T16:29:25.463Z,17.02
2022-10-14T16:31:54.316Z,15.52
2022-10-14T16:34:23.504Z,15.68
2022-10-14T16:36:52.534Z,15.43
2022-10-14T16:39:20.535Z,14.80
2022-10-14T16:41:49.728Z,14.02
2022-10-14T16:44:27.314Z,14.07
2022-10-14T16:47:15.388Z,15.52
2022-10-14T16:49:49.281Z,15.48
2022-10-14T16:52:17.243Z,13.95
2022-10-14T16:54:44.531Z,14.52
2022-10-14T16:57:12.440Z,13.40
2022-10-14T16:59:39.823Z,13.43
2022-10-14T17:02:11.348Z,14.23
2022-10-14T17:04:42.483Z,14.13
2022-10-14T17:07:18.965Z,13.18
2022-10-14T17:09:49.849Z,13.30
2022-10-14T17:12:20.291Z,12.70
2022-10-14T17:14:50.792Z,11.80
2022-10-14T17:17:18.732Z,12.50
2022-10-14T17:19:48.611Z,12.20
2022-10-14T17:22:17.595Z,13.00
2022-10-14T17:24:49.386Z,13.07
2022-10-14T17:27:24.214Z,12.77
2022-10-14T17:29:53.515Z,13.18
2022-10-14T17:32:24.393Z,11.68
2022-10-14T17:34:54.721Z,12.40
2022-10-14T17:37:25.164Z,11.23
2022-10-14T17:39:52.924Z,12.65
2022-10-14T17:42:20.417Z,11.65
2022-10-14T17:44:48.022Z,13.38
2022-10-14T17:47:17.509Z,12.23
2022-10-14T17:49:48.304Z,13.70
2022-10-14T17:52:17.203Z,11.60
2022-10-14T17:54:48.478Z,13.00
2022-10-14T17:57:19.072Z,12.90
2022-10-14T17:59:49.710Z,12.15
2022-10-14T18:02:19.039Z,13.18
2022-10-14T18:04:50.617Z,12.60
2022-10-14T18:07:25.160Z,11.73
2022-10-14T18:09:56.202Z,12.60
2022-10-14T18:12:24.565Z,12.15
2022-10-14T18:14:52.559Z,11.73
2022-10-14T18:17:20.795Z,12.18
2022-10-14T18:19:52.964Z,12.88
2022-10-14T18:22:25.010Z,14.15
2022-10-14T18:24:52.782Z,13.05
2022-10-14T18:27:25.767Z,14.15
2022-10-14T18:29:53.593Z,15.30
2022-10-14T18:32:21.254Z,14.40
2022-10-14T18:34:55.407Z,14.02
2022-10-14T18:37:28.993Z,13.10
2022-10-14T18:39:56.527Z,12.85
2022-10-14T18:42:28.159Z,13.02
2022-10-14T18:44:59.414Z,12.68
2022-10-14T18:47:27.953Z,11.77
2022-10-14T18:49:56.192Z,12.80
2022-10-14T18:52:24.268Z,12.93
2022-10-14T18:54:52.067Z,13.80
2022-10-14T18:57:21.883Z,13.38
2022-10-14T18:59:59.554Z,13.65
2022-10-14T19:02:27.348Z,13.55
2022-10-14T19:04:56.990Z,12.57
2022-10-14T19:07:27.496Z,13.35
2022-10-14T19:09:57.829Z,13.70
2022-10-14T19:12:44.555Z,13.38
2022-10-14T19:15:12.995Z,13.13
2022-10-14T19:17:47.031Z,13.57
2022-10-14T19:20:15.628Z,13.10
2022-10-14T19:22:45.424Z,12.80
2022-10-14T19:25:21.023Z,13.65
2022-10-14T19:27:48.940Z,14.60
2022-10-14T19:30:26.703Z,14.32
2022-10-14T19:33:00.264Z,14.07
2022-10-14T19:35:32.707Z,13.98
2022-10-14T19:38:00.934Z,13.80
2022-10-14T19:40:38.181Z,17.33
2022-10-14T19:43:05.437Z,16.70
2022-10-14T19:45:35.768Z,18.25
2022-10-14T19:48:06.123Z,17.27
2022-10-14T19:50:33.762Z,19.83
2022-10-14T19:53:00.969Z,19.10
2022-10-14T19:55:28.434Z,19.30
2022-10-14T19:57:58.681Z,19.75
2022-10-14T20:00:25.771Z,20.23
2022-10-14T20:02:53.163Z,21.73
2022-10-14T20:05:20.909Z,21.17
2022-10-14T20:07:48.842Z,24.05
2022-10-14T20:10:16.491Z,23.58
2022-10-14T20:12:43.739Z,22.58
2022-10-14T20:15:14.550Z,21.33
2022-10-14T20:17:44.600Z,22.33
2022-10-14T20:20:12.597Z,20.85
2022-10-14T20:22:39.695Z,20.92
2022-10-14T20:25:08.040Z,20.33
2022-10-14T20:27:37.898Z,21.42
2022-10-14T20:30:09.505Z,20.98
2022-10-14T20:32:36.713Z,21.02
2022-10-14T20:35:04.188Z,20.90
2022-10-14T20:37:32.581Z,22.13
2022-10-14T20:40:00.142Z,21.95
2022-10-14T20:42:27.385Z,22.70
2022-10-14T20:44:57.794Z,23.05
2022-10-14T20:47:25.258Z,22.23
2022-10-14T20:49:52.672Z,22.92
2022-10-14T20:52:19.767Z,21.05
2022-10-14T20:54:46.864Z,24.05
2022-10-14T20:57:17.453Z,22.70
2022-10-14T20:59:50.700Z,21.80
2022-10-14T21:02:21.898Z,23.15
2022-10-14T21:04:51.132Z,27.60
2022-10-14T21:07:21.126Z,26.27
2022-10-14T21:09:52.352Z,25.48
2022-10-14T21:12:19.379Z,25.10
2022-10-14T21:14:46.540Z,24.90
2022-10-14T21:17:13.606Z,25.35
2022-10-14T21:19:43.902Z,24.75
2022-10-14T21:22:10.978Z,24.95
2022-10-14T21:24:41.132Z,28.13
2022-10-14T21:27:08.506Z,29.05
2022-10-14T21:29:35.559Z,27.85
2022-10-14T21:32:06.155Z,29.83
2022-10-14T21:34:33.724Z,28.45
2022-10-14T21:37:00.768Z,28.15
2022-10-14T21:39:27.943Z,28.25
2022-10-14T21:41:58.691Z,29.08
2022-10-14T21:44:28.611Z,27.95
2022-10-14T21:46:55.696Z,28.85
2022-10-14T21:49:26.109Z,27.60
2022-10-14T21:51:56.748Z,27.75
2022-10-14T21:54:27.549Z,27.98
2022-10-14T21:59:27.081Z,27.50
2022-10-14T22:01:56.592Z,30.15
2022-10-14T22:04:25.818Z,29.67
2022-10-14T22:06:53.173Z,28.60
2022-10-14T22:09:21.668Z,27.63
2022-10-14T22:11:53.872Z,29.08
2022-10-14T22:14:21.291Z,28.83
2022-10-14T22:16:57.852Z,28.63
2022-10-14T22:19:24.993Z,29.60
2022-10-14T22:21:52.387Z,26.30
2022-10-14T22:24:19.552Z,27.38
2022-10-14T22:26:49.901Z,28.73
2022-10-14T22:29:17.882Z,30.70
2022-10-14T22:31:46.296Z,29.75
2022-10-14T22:34:18.253Z,29.05
2022-10-14T22:36:45.913Z,31.20
2022-10-14T22:39:16.067Z,32.28
2022-10-14T22:41:43.605Z,30.55
2022-10-14T22:44:11.365Z,31.50
2022-10-14T22:46:40.419Z,31.33
2022-10-14T22:49:07.972Z,31.83
2022-10-14T22:51:42.805Z,32.00
2022-10-14T22:54:10.698Z,33.87
2022-10-14T22:56:40.675Z,35.00
2022-10-14T22:59:11.037Z,33.28
2022-10-14T23:01:40.163Z,32.03
2022-10-14T23:04:07.594Z,32.55
2022-10-14T23:06:43.767Z,30.92
2022-10-14T23:09:11.114Z,30.20
2022-10-14T23:11:38.695Z,30.67
2022-10-14T23:14:09.575Z,31.05
2022-10-14T23:16:38.658Z,31.92
2022-10-14T23:19:09.545Z,32.78
2022-10-14T23:21:38.300Z,31.83
2022-10-14T23:24:10.289Z,33.75
2022-10-14T23:26:37.923Z,33.75
2022-10-14T23:29:14.207Z,33.65
2022-10-14T23:31:42.693Z,32.15
2022-10-14T23:34:14.133Z,33.45
2022-10-14T23:36:44.812Z,31.75
2022-10-14T23:39:18.020Z,31.42
2022-10-14T23:41:45.117Z,31.98
2022-10-14T23:44:12.499Z,31.00
2022-10-14T23:46:39.569Z,30.80
2022-10-14T23:49:21.132Z,32.63
2022-10-14T23:51:51.990Z,30.65
2022-10-14T23:54:19.144Z,30.98
2022-10-14T23:56:52.928Z,32.47
2022-10-14T23:59:20.236Z,31.92
